createdAt,value
2022-12-31T00:00:33.867Z,1.60
2022-12-31T00:03:01.769Z,1.08
2022-12-31T00:05:31.819Z,0.85
2022-12-31T00:07:59.678Z,2.63
2022-12-31T00:10:27.301Z,1.38
2022-12-31T00:12:55.000Z,1.38
2022-12-31T00:15:22.600Z,1.00
2022-12-31T00:17:50.306Z,1.75
2022-12-31T00:20:17.995Z,2.00
2022-12-31T00:22:45.738Z,1.55
2022-12-31T00:25:13.430Z,1.30
2022-12-31T00:27:41.161Z,2.17
2022-12-31T00:30:09.301Z,1.13
2022-12-31T00:32:37.004Z,1.47
2022-12-31T00:35:04.951Z,2.00
2022-12-31T00:37:32.573Z,1.55
2022-12-31T00:40:00.866Z,1.87
2022-12-31T00:42:28.545Z,1.33
2022-12-31T00:44:56.236Z,1.85
2022-12-31T00:47:24.847Z,2.20
2022-12-31T00:49:52.577Z,2.43
2022-12-31T00:52:20.309Z,1.67
2022-12-31T00:54:48.036Z,1.73
2022-12-31T00:57:15.770Z,2.27
2022-12-31T00:59:43.494Z,1.92
2022-12-31T01:02:11.474Z,1.85
2022-12-31T01:04:39.273Z,1.70
2022-12-31T01:07:07.050Z,1.50
2022-12-31T01:09:34.699Z,1.52
2022-12-31T01:12:03.628Z,1.30
2022-12-31T01:14:33.059Z,1.23
2022-12-31T01:17:00.880Z,1.20
2022-12-31T01:19:29.074Z,1.63
2022-12-31T01:21:56.817Z,1.17
2022-12-31T01:24:24.789Z,1.55
2022-12-31T01:26:52.646Z,2.70
2022-12-31T01:29:20.418Z,1.97
2022-12-31T01:31:48.121Z,2.95
2022-12-31T01:34:15.819Z,2.22
2022-12-31T01:36:43.444Z,1.90
2022-12-31T01:39:11.926Z,1.27
2022-12-31T01:41:43.314Z,1.77
2022-12-31T01:44:13.807Z,2.50
2022-12-31T01:46:41.440Z,1.40
2022-12-31T01:49:09.239Z,1.33
2022-12-31T01:51:36.921Z,3.13
2022-12-31T01:54:05.721Z,2.33
2022-12-31T01:56:33.404Z,1.50
2022-12-31T01:59:01.047Z,1.55
2022-12-31T02:01:29.852Z,1.95
2022-12-31T02:03:58.074Z,1.60
2022-12-31T02:06:27.600Z,1.65
2022-12-31T02:08:55.378Z,1.65
2022-12-31T02:11:27.648Z,1.83
2022-12-31T02:13:58.571Z,2.30
2022-12-31T02:16:29.543Z,2.20
2022-12-31T02:18:59.475Z,2.47
2022-12-31T02:21:27.148Z,2.17
2022-12-31T02:24:06.895Z,1.90
2022-12-31T02:26:46.442Z,2.08
2022-12-31T02:29:20.199Z,1.90
2022-12-31T02:31:50.021Z,2.08
2022-12-31T02:34:19.888Z,2.10
2022-12-31T02:36:47.737Z,2.27
2022-12-31T02:39:15.427Z,2.08
2022-12-31T02:41:52.418Z,1.80
2022-12-31T02:44:20.147Z,1.50
2022-12-31T02:46:51.025Z,1.73
2022-12-31T02:49:23.913Z,1.58
2022-12-31T02:51:51.647Z,2.00
2022-12-31T02:54:38.028Z,2.33
2022-12-31T02:57:11.678Z,1.58
2022-12-31T03:00:00.437Z,2.17
2022-12-31T03:02:28.869Z,1.63
2022-12-31T03:04:59.543Z,1.83
2022-12-31T03:07:33.512Z,2.35
2022-12-31T03:10:01.421Z,1.97
2022-12-31T03:12:48.185Z,1.17
2022-12-31T03:15:23.829Z,1.60
2022-12-31T03:17:51.519Z,1.52
2022-12-31T03:20:38.031Z,1.47
2022-12-31T03:23:10.152Z,2.63
2022-12-31T03:25:40.918Z,1.73
2022-12-31T03:28:09.627Z,1.60
2022-12-31T03:30:37.984Z,1.80
2022-12-31T03:33:05.924Z,1.90
2022-12-31T03:35:34.088Z,1.97
2022-12-31T03:38:02.010Z,1.95
2022-12-31T03:40:30.058Z,1.50
2022-12-31T03:42:57.812Z,1.92
2022-12-31T03:45:25.585Z,1.70
2022-12-31T03:47:53.306Z,2.28
2022-12-31T03:50:21.249Z,1.17
2022-12-31T03:52:49.141Z,1.80
2022-12-31T03:55:16.927Z,1.70
2022-12-31T03:57:44.692Z,1.92
2022-12-31T04:00:15.645Z,1.20
2022-12-31T04:02:43.485Z,0.95
2022-12-31T04:05:11.270Z,1.10
2022-12-31T04:07:38.985Z,1.10
2022-12-31T04:10:07.015Z,0.90
2022-12-31T04:12:34.725Z,1.02
2022-12-31T04:15:02.430Z,0.70
2022-12-31T04:17:30.267Z,0.73
2022-12-31T04:19:58.036Z,0.52
2022-12-31T04:22:25.822Z,1.05
2022-12-31T04:24:53.515Z,0.70
2022-12-31T04:27:21.209Z,0.93
2022-12-31T04:29:48.957Z,0.63
2022-12-31T04:32:16.679Z,1.50
2022-12-31T04:34:44.425Z,0.97
2022-12-31T04:37:12.032Z,1.05
2022-12-31T04:39:39.771Z,1.55
2022-12-31T04:42:07.447Z,1.13
2022-12-31T04:44:35.384Z,1.00
2022-12-31T04:47:03.047Z,0.93
2022-12-31T04:49:30.799Z,0.70
2022-12-31T04:51:58.511Z,1.08
2022-12-31T04:54:26.266Z,0.80
2022-12-31T04:56:54.173Z,0.88
2022-12-31T04:59:21.877Z,0.93
2022-12-31T05:01:49.787Z,0.80
2022-12-31T05:04:17.537Z,0.60
2022-12-31T05:06:45.307Z,0.77
2022-12-31T05:09:12.971Z,0.80
2022-12-31T05:11:40.682Z,0.47
2022-12-31T05:14:08.349Z,0.50
2022-12-31T05:16:35.991Z,0.57
2022-12-31T05:19:06.533Z,0.55
2022-12-31T05:21:34.443Z,0.77
2022-12-31T05:24:02.268Z,1.23
2022-12-31T05:26:29.929Z,0.90
2022-12-31T05:28:57.621Z,0.70
2022-12-31T05:31:25.355Z,0.70
2022-12-31T05:33:53.564Z,0.93
2022-12-31T05:36:21.308Z,1.73
2022-12-31T05:38:48.969Z,1.03
2022-12-31T05:41:16.699Z,1.00
2022-12-31T05:43:44.339Z,0.88
2022-12-31T05:46:12.043Z,0.73
2022-12-31T05:48:39.796Z,0.87
2022-12-31T05:51:07.578Z,0.75
2022-12-31T05:53:35.420Z,0.80
2022-12-31T05:56:03.227Z,1.00
2022-12-31T05:58:30.955Z,0.73
2022-12-31T06:00:58.614Z,0.70
2022-12-31T06:03:26.531Z,1.20
2022-12-31T06:05:54.211Z,0.80
2022-12-31T06:08:24.140Z,0.90
2022-12-31T06:10:51.798Z,0.90
2022-12-31T06:13:19.545Z,0.87
2022-12-31T06:15:47.295Z,0.60
2022-12-31T06:18:15.100Z,1.15
2022-12-31T06:20:42.946Z,0.70
2022-12-31T06:23:10.642Z,0.80
2022-12-31T06:25:38.395Z,0.98
2022-12-31T06:28:06.149Z,0.77
2022-12-31T06:30:33.883Z,0.70
2022-12-31T06:33:01.565Z,0.50
2022-12-31T06:35:29.501Z,0.38
2022-12-31T06:37:57.174Z,0.30
2022-12-31T06:40:24.883Z,0.35
2022-12-31T06:42:59.657Z,0.50
2022-12-31T06:45:28.424Z,0.50
2022-12-31T06:47:56.258Z,0.35
2022-12-31T06:50:23.901Z,0.45
2022-12-31T06:52:51.733Z,0.70
2022-12-31T06:55:19.580Z,0.43
2022-12-31T06:57:47.395Z,0.60
2022-12-31T07:00:15.395Z,0.73
2022-12-31T07:02:43.175Z,0.50
2022-12-31T07:05:30.058Z,0.50
2022-12-31T07:07:58.088Z,0.30
2022-12-31T07:10:34.633Z,0.50
2022-12-31T07:13:11.421Z,1.05
2022-12-31T07:15:57.347Z,0.50
2022-12-31T07:18:28.668Z,0.60
2022-12-31T07:20:56.415Z,0.88
2022-12-31T07:23:24.340Z,0.52
2022-12-31T07:25:56.627Z,0.60
2022-12-31T07:28:42.655Z,0.80
2022-12-31T07:31:32.114Z,0.63
2022-12-31T07:34:01.308Z,0.90
2022-12-31T07:36:44.309Z,0.70
2022-12-31T07:39:13.663Z,0.85
2022-12-31T07:42:02.197Z,0.60
2022-12-31T07:44:30.088Z,0.90
2022-12-31T07:47:01.300Z,1.08
2022-12-31T07:49:29.601Z,1.00
2022-12-31T07:51:57.427Z,0.90
2022-12-31T07:54:25.234Z,0.80
2022-12-31T07:56:52.919Z,0.93
2022-12-31T07:59:29.863Z,0.90
2022-12-31T08:02:00.422Z,0.90
2022-12-31T08:04:43.860Z,1.20
2022-12-31T08:07:20.429Z,1.40
2022-12-31T08:09:50.993Z,0.90
2022-12-31T08:12:18.905Z,0.82
2022-12-31T08:14:48.535Z,1.25
2022-12-31T08:17:17.910Z,0.55
2022-12-31T08:19:45.951Z,0.40
2022-12-31T08:22:26.002Z,1.20
2022-12-31T08:24:57.307Z,0.73
2022-12-31T08:27:29.031Z,1.20
2022-12-31T08:30:04.773Z,0.63
2022-12-31T08:32:35.725Z,0.63
2022-12-31T08:35:06.183Z,0.40
2022-12-31T08:37:37.994Z,0.50
2022-12-31T08:40:13.278Z,0.60
2022-12-31T08:43:02.742Z,0.60
2022-12-31T08:45:40.720Z,0.80
2022-12-31T08:48:09.281Z,0.70
2022-12-31T08:50:37.119Z,0.95
2022-12-31T08:53:05.046Z,0.90
2022-12-31T08:55:32.870Z,1.05
2022-12-31T08:58:00.695Z,0.90
2022-12-31T09:00:28.508Z,0.60
2022-12-31T09:02:59.726Z,0.52
2022-12-31T09:05:40.060Z,0.40
2022-12-31T09:08:10.255Z,0.90
2022-12-31T09:10:56.867Z,0.60
2022-12-31T09:13:27.348Z,0.40
2022-12-31T09:16:13.697Z,0.90
2022-12-31T09:18:42.663Z,0.73
2022-12-31T09:21:13.666Z,1.02
2022-12-31T09:23:41.594Z,0.70
2022-12-31T09:26:31.575Z,1.30
2022-12-31T09:29:01.391Z,1.55
2022-12-31T09:31:32.728Z,1.27
2022-12-31T09:34:01.224Z,1.10
2022-12-31T09:36:39.765Z,1.70
2022-12-31T09:39:07.355Z,1.05
2022-12-31T09:41:44.017Z,1.30
2022-12-31T09:44:30.570Z,1.03
2022-12-31T09:47:16.798Z,0.73
2022-12-31T09:49:44.437Z,0.90
2022-12-31T09:52:12.123Z,1.33
2022-12-31T09:54:48.965Z,0.77
2022-12-31T09:57:19.731Z,0.70
2022-12-31T09:59:49.598Z,0.75
2022-12-31T10:02:36.033Z,0.60
2022-12-31T10:05:09.821Z,0.80
2022-12-31T10:07:37.548Z,0.70
2022-12-31T10:10:14.321Z,0.87
2022-12-31T10:12:42.108Z,0.47
2022-12-31T10:15:09.754Z,0.80
2022-12-31T10:17:56.010Z,0.60
2022-12-31T10:20:45.250Z,0.80
2022-12-31T10:23:22.500Z,0.50
2022-12-31T10:25:50.116Z,0.60
2022-12-31T10:28:32.331Z,1.23
2022-12-31T10:31:16.602Z,0.82
2022-12-31T10:33:45.664Z,0.70
2022-12-31T10:36:13.269Z,0.70
2022-12-31T10:39:05.066Z,1.25
2022-12-31T10:41:45.421Z,0.63
2022-12-31T10:44:31.982Z,0.63
2022-12-31T10:46:59.670Z,0.60
2022-12-31T10:49:45.769Z,0.80
2022-12-31T10:52:25.420Z,0.75
2022-12-31T10:55:11.676Z,1.73
2022-12-31T10:58:03.827Z,0.80
2022-12-31T11:00:35.434Z,0.98
2022-12-31T11:03:28.886Z,0.90
2022-12-31T11:06:03.405Z,1.02
2022-12-31T11:08:31.001Z,0.70
2022-12-31T11:11:04.782Z,1.03
2022-12-31T11:13:47.790Z,0.98
2022-12-31T11:16:27.560Z,1.17
2022-12-31T11:19:13.807Z,1.20
2022-12-31T11:21:51.066Z,1.10
2022-12-31T11:24:23.134Z,0.82
2022-12-31T11:27:04.244Z,0.80
2022-12-31T11:29:41.029Z,1.00
2022-12-31T11:32:27.941Z,0.70
2022-12-31T11:35:19.288Z,1.25
2022-12-31T11:37:54.114Z,1.10
2022-12-31T11:40:27.923Z,1.65
2022-12-31T11:42:59.938Z,0.90
2022-12-31T11:45:30.454Z,1.90
2022-12-31T11:50:50.056Z,1.60
2022-12-31T11:53:35.715Z,1.40
2022-12-31T11:56:19.603Z,1.40
2022-12-31T11:58:48.849Z,1.55
2022-12-31T12:01:25.456Z,1.10
2022-12-31T12:03:53.231Z,1.23
2022-12-31T12:06:23.871Z,1.55
2022-12-31T12:08:51.527Z,2.08
2022-12-31T12:11:22.950Z,1.30
2022-12-31T12:13:50.734Z,1.57
2022-12-31T12:16:18.479Z,1.42
2022-12-31T12:18:50.527Z,0.82
2022-12-31T12:21:24.705Z,1.13
2022-12-31T12:23:56.616Z,0.80
2022-12-31T12:26:32.309Z,1.50
2022-12-31T12:29:01.496Z,1.43
2022-12-31T12:31:29.282Z,0.80
2022-12-31T12:33:56.987Z,0.75
2022-12-31T12:36:24.651Z,0.73
2022-12-31T12:39:01.364Z,0.87
2022-12-31T12:41:29.117Z,0.80
2022-12-31T12:44:23.327Z,1.15
2022-12-31T12:46:50.970Z,1.20
2022-12-31T12:49:24.836Z,1.05
2022-12-31T12:51:55.230Z,1.10
2022-12-31T12:54:25.768Z,1.13
2022-12-31T12:57:02.313Z,1.10
2022-12-31T12:59:42.254Z,1.23
2022-12-31T13:02:18.286Z,1.83
2022-12-31T13:05:06.430Z,1.17
2022-12-31T13:07:47.801Z,1.17
2022-12-31T13:10:22.135Z,1.15
2022-12-31T13:13:23.180Z,1.10
2022-12-31T13:15:59.269Z,1.40
2022-12-31T13:18:39.901Z,1.65
2022-12-31T13:21:22.884Z,1.40
2022-12-31T13:24:02.215Z,1.58
2022-12-31T13:26:35.069Z,1.27
2022-12-31T13:29:02.992Z,1.33
2022-12-31T13:31:39.758Z,1.30
2022-12-31T13:34:09.606Z,1.75
2022-12-31T13:36:38.824Z,1.33
2022-12-31T13:39:06.974Z,1.60
2022-12-31T13:42:03.936Z,1.48
2022-12-31T13:44:53.200Z,1.50
2022-12-31T13:47:26.123Z,1.40
2022-12-31T13:49:55.439Z,1.70
2022-12-31T13:52:23.160Z,1.05
2022-12-31T13:54:53.656Z,1.48
2022-12-31T13:57:24.839Z,0.90
2022-12-31T13:59:54.263Z,1.67
2022-12-31T14:02:37.459Z,1.55
2022-12-31T14:05:14.035Z,1.23
2022-12-31T14:07:54.920Z,1.08
2022-12-31T14:10:48.816Z,0.90
2022-12-31T14:13:16.478Z,1.47
2022-12-31T14:15:50.063Z,1.30
2022-12-31T14:18:20.498Z,1.42
2022-12-31T14:20:49.113Z,1.00
2022-12-31T14:23:19.882Z,1.20
2022-12-31T14:26:13.491Z,1.85
2022-12-31T14:28:46.959Z,1.58
2022-12-31T14:31:28.106Z,1.07
2022-12-31T14:34:11.364Z,0.98
2022-12-31T14:36:38.998Z,1.50
2022-12-31T14:39:10.702Z,1.53
2022-12-31T14:41:41.511Z,0.85
2022-12-31T14:44:41.741Z,0.90
2022-12-31T14:47:09.375Z,0.77
2022-12-31T14:49:42.930Z,1.10
2022-12-31T14:52:10.616Z,0.88
2022-12-31T14:54:39.614Z,0.90
2022-12-31T14:57:11.147Z,1.00
2022-12-31T14:59:40.722Z,0.47
2022-12-31T15:02:26.242Z,0.90
2022-12-31T15:05:03.332Z,0.67
2022-12-31T15:07:51.036Z,0.90
2022-12-31T15:10:27.807Z,0.70
2022-12-31T15:13:08.748Z,0.88
2022-12-31T15:15:55.113Z,0.87
2022-12-31T15:18:26.005Z,0.75
2022-12-31T15:20:53.856Z,0.85
2022-12-31T15:23:25.172Z,1.30
2022-12-31T15:26:02.059Z,1.80
2022-12-31T15:28:29.738Z,0.80
2022-12-31T15:30:59.499Z,0.60
2022-12-31T15:33:47.494Z,0.95
2022-12-31T15:36:18.916Z,3.10
2022-12-31T15:38:46.640Z,1.13
2022-12-31T15:41:15.190Z,2.07
2022-12-31T15:43:50.542Z,1.92
2022-12-31T15:46:20.014Z,5.10
2022-12-31T15:48:52.857Z,0.80
2022-12-31T15:51:32.041Z,1.30
2022-12-31T15:54:00.961Z,1.13
2022-12-31T15:56:32.162Z,0.90
2022-12-31T15:59:00.498Z,0.90
2022-12-31T16:01:37.554Z,9.77
2022-12-31T16:04:05.905Z,5.57
2022-12-31T16:06:34.439Z,6.33
2022-12-31T16:09:02.075Z,2.15
2022-12-31T16:11:30.672Z,3.38
2022-12-31T16:13:59.038Z,6.87
2022-12-31T16:16:31.934Z,1.98
2022-12-31T16:18:59.793Z,1.10
2022-12-31T16:21:33.012Z,1.07
2022-12-31T16:24:01.903Z,0.70
2022-12-31T16:26:31.379Z,1.95
2022-12-31T16:29:04.346Z,2.90
2022-12-31T16:31:32.195Z,1.90
2022-12-31T16:34:06.866Z,1.80
2022-12-31T16:36:35.541Z,1.60
2022-12-31T16:39:21.860Z,1.57
2022-12-31T16:41:49.569Z,1.00
2022-12-31T16:44:27.025Z,1.92
2022-12-31T16:46:58.068Z,1.77
2022-12-31T16:49:25.810Z,2.05
2022-12-31T16:51:54.182Z,1.95
2022-12-31T16:54:25.205Z,1.70
2022-12-31T16:56:52.851Z,1.90
2022-12-31T16:59:24.178Z,1.92
2022-12-31T17:01:52.037Z,2.17
2022-12-31T17:04:20.436Z,2.10
2022-12-31T17:06:48.424Z,2.58
2022-12-31T17:09:20.808Z,2.08
2022-12-31T17:12:07.115Z,1.53
2022-12-31T17:14:35.318Z,1.60
2022-12-31T17:17:07.014Z,2.60
2022-12-31T17:19:41.690Z,2.25
2022-12-31T17:22:32.792Z,1.83
2022-12-31T17:25:02.835Z,1.77
2022-12-31T17:27:30.960Z,2.67
2022-12-31T17:30:17.439Z,3.77
2022-12-31T17:32:46.088Z,3.90
2022-12-31T17:35:29.227Z,5.93
2022-12-31T17:38:04.313Z,4.43
2022-12-31T17:40:50.874Z,3.67
2022-12-31T17:43:23.215Z,2.78
2022-12-31T17:45:53.777Z,3.53
2022-12-31T17:48:21.526Z,2.63
2022-12-31T17:50:49.194Z,2.15
2022-12-31T17:53:17.024Z,2.55
2022-12-31T17:55:48.115Z,3.50
2022-12-31T17:58:29.803Z,2.72
2022-12-31T18:00:58.164Z,3.05
2022-12-31T18:03:26.037Z,3.27
2022-12-31T18:05:53.643Z,3.33
2022-12-31T18:08:21.384Z,4.03
2022-12-31T18:10:49.066Z,3.10
2022-12-31T18:13:26.291Z,3.37
2022-12-31T18:15:54.134Z,4.05
2022-12-31T18:18:25.676Z,3.90
2022-12-31T18:20:54.819Z,6.50
2022-12-31T18:23:32.485Z,4.90
2022-12-31T18:26:00.205Z,3.20
2022-12-31T18:28:27.949Z,5.10
2022-12-31T18:30:55.666Z,3.58
2022-12-31T18:33:25.188Z,3.83
2022-12-31T18:36:10.051Z,3.03
2022-12-31T18:38:38.207Z,4.07
2022-12-31T18:41:05.998Z,3.83
2022-12-31T18:43:33.702Z,3.67
2022-12-31T18:46:01.602Z,3.07
2022-12-31T18:48:29.537Z,3.58
2022-12-31T18:50:57.400Z,4.47
2022-12-31T18:53:25.147Z,3.97
2022-12-31T18:55:53.719Z,3.33
2022-12-31T18:58:21.467Z,14.55
2022-12-31T19:00:49.291Z,5.18
2022-12-31T19:03:18.394Z,11.40
2022-12-31T19:05:49.812Z,7.15
2022-12-31T19:08:19.946Z,5.18
2022-12-31T19:10:51.227Z,4.00
2022-12-31T19:13:20.084Z,3.88
2022-12-31T19:15:48.977Z,5.90
2022-12-31T19:18:17.517Z,3.03
2022-12-31T19:20:46.728Z,14.23
2022-12-31T19:23:16.694Z,5.38
2022-12-31T19:25:44.665Z,2.92
2022-12-31T19:28:15.923Z,3.83
2022-12-31T19:30:49.708Z,3.30
2022-12-31T19:33:17.924Z,3.90
2022-12-31T19:35:48.697Z,3.50
2022-12-31T19:38:23.194Z,4.10
2022-12-31T19:40:51.295Z,3.42
2022-12-31T19:43:20.826Z,5.97
2022-12-31T19:45:49.932Z,3.28
2022-12-31T19:48:18.874Z,6.18
2022-12-31T19:50:49.132Z,3.20
2022-12-31T19:53:18.608Z,3.93
2022-12-31T19:55:49.666Z,7.22
2022-12-31T19:58:21.208Z,3.10
2022-12-31T20:00:54.843Z,3.37
2022-12-31T20:03:26.730Z,4.68
2022-12-31T20:06:03.806Z,3.20
2022-12-31T20:08:31.587Z,2.87
2022-12-31T20:11:01.298Z,2.80
2022-12-31T20:13:29.182Z,2.70
2022-12-31T20:15:57.077Z,2.70
2022-12-31T20:18:27.971Z,2.80
2022-12-31T20:20:57.047Z,2.83
2022-12-31T20:23:26.126Z,2.55
2022-12-31T20:25:57.472Z,4.00
2022-12-31T20:28:25.923Z,2.55
2022-12-31T20:30:54.470Z,2.25
2022-12-31T20:33:22.667Z,3.13
2022-12-31T20:35:50.405Z,1.73
2022-12-31T20:38:18.343Z,2.72
2022-12-31T20:40:47.172Z,2.30
2022-12-31T20:43:18.185Z,2.33
2022-12-31T20:45:48.166Z,2.75
2022-12-31T20:48:16.069Z,2.67
2022-12-31T20:50:43.763Z,2.43
2022-12-31T20:53:11.438Z,3.00
2022-12-31T20:55:39.206Z,2.30
2022-12-31T20:58:06.911Z,2.63
2022-12-31T21:00:34.693Z,2.75
2022-12-31T21:03:14.190Z,2.90
2022-12-31T21:05:50.774Z,3.15
2022-12-31T21:08:18.601Z,3.07
2022-12-31T21:10:48.265Z,2.50
2022-12-31T21:13:18.547Z,2.47
2022-12-31T21:15:49.819Z,3.07
2022-12-31T21:18:18.001Z,2.80
2022-12-31T21:20:51.981Z,2.55
2022-12-31T21:23:20.117Z,2.20
2022-12-31T21:25:50.272Z,1.95
2022-12-31T21:28:17.935Z,1.80
2022-12-31T21:30:45.770Z,2.38
2022-12-31T21:33:13.569Z,2.50
2022-12-31T21:35:45.806Z,3.10
2022-12-31T21:38:19.451Z,2.67
2022-12-31T21:40:47.160Z,2.00
2022-12-31T21:43:15.418Z,2.22
2022-12-31T21:45:43.079Z,2.10
2022-12-31T21:48:20.073Z,2.33
2022-12-31T21:50:48.717Z,2.67
2022-12-31T21:53:23.468Z,2.88
2022-12-31T21:56:11.861Z,2.50
2022-12-31T21:58:40.583Z,2.50
2022-12-31T22:01:27.397Z,1.98
2022-12-31T22:03:55.185Z,2.90
2022-12-31T22:06:23.190Z,6.80
2022-12-31T22:08:51.841Z,6.90
2022-12-31T22:11:19.950Z,2.83
2022-12-31T22:13:47.749Z,3.43
2022-12-31T22:16:15.627Z,3.60
2022-12-31T22:18:44.271Z,3.83
2022-12-31T22:21:19.402Z,3.78
2022-12-31T22:23:48.729Z,3.80
2022-12-31T22:26:16.973Z,3.40
2022-12-31T22:28:45.140Z,3.30
2022-12-31T22:31:18.803Z,3.43
2022-12-31T22:33:46.619Z,3.70
2022-12-31T22:36:15.166Z,3.72
2022-12-31T22:38:42.853Z,4.03
2022-12-31T22:41:17.601Z,2.88
2022-12-31T22:43:46.522Z,4.10
2022-12-31T22:46:15.328Z,2.88
2022-12-31T22:48:43.430Z,4.73
2022-12-31T22:51:11.341Z,2.65
2022-12-31T22:53:41.311Z,3.22
2022-12-31T22:56:09.127Z,3.77
2022-12-31T22:58:36.861Z,3.45
2022-12-31T23:01:05.761Z,3.50
2022-12-31T23:03:33.643Z,4.70
2022-12-31T23:06:01.338Z,5.95
2022-12-31T23:08:29.072Z,8.50
2022-12-31T23:11:01.424Z,14.32
2022-12-31T23:13:50.936Z,18.97
2022-12-31T23:16:38.327Z,9.20
2022-12-31T23:19:24.757Z,8.40
2022-12-31T23:22:11.301Z,8.30
2022-12-31T23:24:39.266Z,7.68
2022-12-31T23:27:07.177Z,12.48
2022-12-31T23:29:36.969Z,9.13
2022-12-31T23:32:08.465Z,12.68
2022-12-31T23:34:36.339Z,7.63
2022-12-31T23:37:04.521Z,9.10
2022-12-31T23:39:32.176Z,8.87
2022-12-31T23:42:00.356Z,8.43
2022-12-31T23:44:28.301Z,8.27
2022-12-31T23:46:56.149Z,10.23
2022-12-31T23:49:23.881Z,7.60
2022-12-31T23:51:51.641Z,6.90
2022-12-31T23:54:19.374Z,5.67
2022-12-31T23:56:47.003Z,5.40
2022-12-31T23:59:14.722Z,7.63
